createdAt,value
2023-05-19T00:02:33.801Z,96.82
2023-05-19T00:10:58.035Z,97.18
2023-05-19T00:19:22.315Z,96.97
2023-05-19T00:27:45.566Z,97.25
2023-05-19T00:36:08.807Z,97.62
2023-05-19T00:44:31.928Z,98.32
2023-05-19T00:52:56.225Z,98.16
2023-05-19T01:01:21.484Z,98.78
2023-05-19T01:09:47.148Z,98.86
2023-05-19T01:18:18.473Z,98.53
2023-05-19T01:27:29.031Z,98.20
2023-05-19T01:35:54.113Z,97.81
2023-05-19T01:44:17.068Z,98.36
2023-05-19T01:52:40.730Z,98.31
2023-05-19T02:01:04.097Z,98.91
2023-05-19T02:09:51.629Z,99.29
2023-05-19T02:18:17.951Z,99.58
2023-05-19T02:26:41.282Z,99.90
2023-05-19T02:35:04.873Z,99.97
2023-05-19T02:43:30.616Z,99.91
2023-05-19T02:51:53.623Z,100.00
2023-05-19T03:00:16.698Z,100.00
2023-05-19T03:08:42.338Z,99.89
2023-05-19T03:17:07.904Z,99.45
2023-05-19T03:25:30.982Z,99.22
2023-05-19T03:33:53.819Z,99.30
2023-05-19T03:42:17.966Z,99.03
2023-05-19T03:50:41.332Z,98.85
2023-05-19T03:59:12.341Z,98.60
2023-05-19T04:07:35.923Z,98.05
2023-05-19T04:15:59.169Z,97.61
2023-05-19T04:24:22.420Z,97.43
2023-05-19T04:32:45.961Z,96.39
2023-05-19T04:41:12.324Z,95.49
2023-05-19T04:49:39.098Z,95.50
2023-05-19T04:58:02.165Z,94.23
2023-05-19T05:06:25.743Z,93.22
2023-05-19T05:14:49.942Z,92.34
2023-05-19T05:23:17.104Z,90.50
2023-05-19T05:31:41.476Z,88.51
2023-05-19T05:40:07.148Z,87.21
2023-05-19T05:48:31.077Z,87.14
2023-05-19T05:56:54.848Z,86.73
2023-05-19T06:05:18.042Z,86.43
2023-05-19T06:13:42.054Z,85.46
2023-05-19T06:22:07.546Z,85.34
2023-05-19T06:30:31.834Z,82.94
2023-05-19T06:39:33.367Z,83.27
2023-05-19T06:47:58.362Z,82.94
2023-05-19T06:56:23.147Z,84.00
2023-05-19T07:04:47.395Z,83.85
2023-05-19T07:13:11.559Z,82.84
2023-05-19T07:21:34.611Z,83.18
2023-05-19T07:29:58.977Z,82.87
2023-05-19T07:38:22.494Z,83.30
2023-05-19T07:46:45.638Z,81.76
2023-05-19T07:55:13.058Z,81.90
2023-05-19T08:03:36.865Z,81.38
2023-05-19T08:12:01.518Z,81.21
2023-05-19T08:20:24.490Z,80.24
2023-05-19T08:28:47.576Z,78.75
2023-05-19T08:37:11.959Z,78.21
2023-05-19T08:45:35.965Z,77.97
2023-05-19T08:54:09.182Z,77.98
2023-05-19T09:02:33.376Z,75.48
2023-05-19T09:10:56.508Z,74.36
2023-05-19T09:19:20.869Z,73.64
2023-05-19T09:27:43.914Z,75.81
2023-05-19T09:36:08.640Z,75.87
2023-05-19T09:44:32.865Z,75.23
2023-05-19T09:52:56.862Z,75.00
2023-05-19T10:01:20.431Z,75.33
2023-05-19T10:09:44.870Z,76.30
2023-05-19T10:18:09.662Z,75.43
2023-05-19T10:26:35.005Z,76.55
2023-05-19T10:35:55.064Z,75.43
2023-05-19T10:44:38.911Z,75.06
2023-05-19T10:53:02.684Z,74.99
2023-05-19T11:01:34.856Z,73.03
2023-05-19T11:09:58.332Z,72.15
2023-05-19T11:18:21.476Z,72.80
2023-05-19T11:26:46.700Z,73.38
2023-05-19T11:35:10.354Z,73.20
2023-05-19T11:43:33.433Z,74.64
2023-05-19T11:51:57.444Z,75.44
2023-05-19T12:00:23.138Z,75.44
2023-05-19T12:08:46.135Z,75.97
2023-05-19T12:17:16.783Z,75.42
2023-05-19T12:25:39.771Z,74.71
2023-05-19T12:34:04.758Z,74.38
2023-05-19T12:42:31.597Z,73.34
2023-05-19T12:50:55.515Z,72.94
2023-05-19T12:59:37.221Z,72.80
2023-05-19T13:08:12.825Z,74.30
2023-05-19T13:16:35.920Z,74.87
2023-05-19T13:24:59.813Z,75.98
2023-05-19T13:33:22.688Z,76.50
2023-05-19T13:41:45.563Z,77.62
2023-05-19T13:50:08.736Z,78.53
2023-05-19T13:58:31.615Z,78.82
2023-05-19T14:06:54.864Z,78.47
2023-05-19T14:15:17.883Z,78.19
2023-05-19T14:23:41.132Z,78.23
2023-05-19T14:32:05.855Z,78.89
2023-05-19T14:40:29.147Z,79.03
2023-05-19T14:48:52.184Z,80.28
2023-05-19T14:57:15.001Z,81.03
2023-05-19T15:05:40.190Z,81.71
2023-05-19T15:14:03.084Z,82.11
2023-05-19T15:22:26.326Z,82.56
2023-05-19T15:30:49.383Z,83.17
2023-05-19T15:39:12.545Z,83.36
2023-05-19T15:47:35.848Z,83.31
2023-05-19T15:55:58.850Z,83.28
2023-05-19T16:04:21.832Z,82.81
2023-05-19T16:12:45.006Z,83.42
2023-05-19T16:21:07.929Z,83.76
2023-05-19T16:29:30.945Z,83.92
2023-05-19T16:37:54.219Z,84.23
2023-05-19T16:46:17.444Z,84.78
2023-05-19T16:54:40.561Z,85.70
2023-05-19T17:03:04.316Z,86.34
2023-05-19T17:11:27.790Z,86.53
2023-05-19T17:19:50.838Z,86.80
2023-05-19T17:28:14.869Z,86.80
2023-05-19T17:36:39.611Z,87.22
2023-05-19T17:45:07.486Z,87.88
2023-05-19T17:53:30.874Z,87.78
2023-05-19T18:01:54.380Z,88.51
2023-05-19T18:10:17.766Z,89.56
2023-05-19T18:18:43.593Z,90.00
2023-05-19T18:27:06.867Z,90.12
2023-05-19T18:35:29.779Z,90.31
2023-05-19T18:43:52.722Z,90.36
2023-05-19T18:52:15.672Z,90.70
2023-05-19T19:00:38.575Z,91.18
2023-05-19T19:09:01.548Z,91.31
2023-05-19T19:17:24.643Z,91.73
2023-05-19T19:25:47.682Z,91.89
2023-05-19T19:34:11.312Z,92.13
2023-05-19T19:42:34.213Z,93.39
2023-05-19T19:50:58.016Z,93.60
2023-05-19T19:59:21.333Z,93.88
2023-05-19T20:07:44.177Z,94.34
2023-05-19T20:16:07.390Z,94.15
2023-05-19T20:24:30.416Z,94.86
2023-05-19T20:32:53.523Z,94.81
2023-05-19T20:41:16.661Z,94.59
2023-05-19T20:49:39.746Z,94.84
2023-05-19T20:58:02.597Z,94.85
2023-05-19T21:06:25.438Z,95.54
2023-05-19T21:14:48.244Z,95.40
2023-05-19T21:23:11.213Z,95.47
2023-05-19T21:31:37.523Z,95.50
2023-05-19T21:40:00.412Z,95.50
2023-05-19T21:48:23.347Z,95.51
2023-05-19T21:56:46.355Z,96.48
2023-05-19T22:05:09.630Z,96.64
2023-05-19T22:13:33.916Z,96.46
2023-05-19T22:22:09.831Z,96.75
2023-05-19T22:30:39.309Z,96.61
2023-05-19T22:39:03.819Z,96.52
2023-05-19T22:47:27.070Z,96.64
2023-05-19T22:55:50.008Z,96.79
2023-05-19T23:04:12.943Z,97.04
2023-05-19T23:12:36.014Z,97.26
2023-05-19T23:20:58.853Z,97.22
2023-05-19T23:29:22.191Z,97.81
2023-05-19T23:37:45.275Z,97.80
2023-05-19T23:46:08.180Z,97.70
2023-05-19T23:54:31.303Z,97.91
